Ackley, Iowa
Current Conditions -  °F | °C
As of 10:15 AM on Wednesday 22 Oct 2014 (Local Time) from KIFA Reporting Station
Overcast Overcast  
Wind Chill: 40°   Ceiling: 5000
Heat Index: 46°   Visibility: 10mi
Dew Point: 40°   Wind: 13mph
Humidity: 81%   Direction: 140°SE
Pressure: 30.24"   Gusts: 18mph
Location:  42.55°N, 93.05°W
Report Text: KIFA 221515Z AUTO 14011G16KT 10SM OVC050 08/05 A3024 RMK AO2 T00770046
Loading
Personal Weather Stations






























Interactive Weather Map
Tropical Storm Tracking
New forecast layout! Learn more

10-Day Weather Forecast

Advertisements
Track Severe Weather on mobile